Time;durP1;ratioP1;P1;durP2;ratioP2;P2;SDS_P1;SDS_P2;PMS_P1;PMS_P2;Temp;Humidity;BMP_temperature;BMP_pressure;BME280_temperature;BME280_humidity;BME280_pressure;Samples;Min_cycle;Max_cycle;Signal;HPM_P1;HPM_P2
2021/05/18 00:01:47;;;;;;;9.70;4.62;;;;;;;10.93;83.63;99080.22;1730809;81;21050;-78
2021/05/18 00:04:13;;;;;;;4.53;3.37;;;;;;;10.91;83.59;99078.20;1728613;81;21194;-78
2021/05/18 00:06:41;;;;;;;6.35;3.25;;;;;;;10.91;83.61;99079.52;1741470;81;21045;-77
2021/05/18 00:11:51;;;;;;;6.37;3.37;;;;;;;10.88;83.63;99089.87;1730711;81;21639;-78
2021/05/18 00:14:22;;;;;;;5.85;3.22;;;;;;;10.88;83.67;99090.36;1732064;81;21034;-79
2021/05/18 00:16:50;;;;;;;3.55;2.47;;;;;;;10.86;83.52;99090.52;1758892;81;21041;-79
2021/05/18 00:19:17;;;;;;;4.83;3.12;;;;;;;10.86;83.69;99094.48;1759936;81;21034;-79
2021/05/18 00:21:44;;;;;;;5.10;2.92;;;;;;;10.87;83.58;99090.03;1759757;81;21515;-79
2021/05/18 00:24:12;;;;;;;5.15;2.92;;;;;;;10.84;83.54;99087.67;1759616;81;21539;-79
2021/05/18 00:26:38;;;;;;;4.62;2.80;;;;;;;10.84;83.51;99092.95;1744148;81;21504;-79
2021/05/18 00:29:06;;;;;;;7.00;3.77;;;;;;;10.82;83.59;99092.25;1728277;81;21070;-78
2021/05/18 00:31:33;;;;;;;2.87;2.00;;;;;;;10.81;83.45;99091.42;1728050;83;21015;-80
2021/05/18 00:33:59;;;;;;;3.72;2.25;;;;;;;10.80;83.37;99092.41;1728200;83;21026;-79
2021/05/18 00:36:26;;;;;;;3.40;1.95;;;;;;;10.80;83.33;99097.19;1738079;81;21049;-80
2021/05/18 00:38:52;;;;;;;3.77;2.10;;;;;;;10.77;83.25;99092.20;1759324;81;21516;-79
2021/05/18 00:41:18;;;;;;;3.02;2.02;;;;;;;10.76;83.49;99094.50;1759525;81;20995;-79
2021/05/18 00:43:44;;;;;;;4.28;2.70;;;;;;;10.73;83.37;99096.10;1757327;81;21555;-79
2021/05/18 00:46:11;;;;;;;3.60;2.05;;;;;;;10.71;83.19;99095.40;1731020;81;20979;-79
2021/05/18 00:48:38;;;;;;;4.25;2.00;;;;;;;10.70;83.20;99099.02;1728242;81;21101;-79
2021/05/18 00:51:08;;;;;;;4.10;1.55;;;;;;;10.68;83.05;99098.81;1741129;81;21033;-80
2021/05/18 00:53:36;;;;;;;2.65;1.42;;;;;;;10.65;83.03;99101.23;1757588;81;21029;-79
2021/05/18 00:56:06;;;;;;;4.60;1.87;;;;;;;10.64;83.03;99097.44;1759840;81;21069;-80
2021/05/18 00:58:37;;;;;;;3.10;1.55;;;;;;;10.62;82.94;99100.69;1747852;81;21101;-80
2021/05/18 01:01:17;;;;;;;2.37;1.70;;;;;;;10.60;82.90;99106.12;1728279;83;21568;-79
2021/05/18 01:03:45;;;;;;;3.17;1.72;;;;;;;10.58;82.88;99106.73;1728047;81;21114;-78
2021/05/18 01:06:24;;;;;;;3.15;1.60;;;;;;;10.55;82.90;99107.02;1732257;81;21029;-79
2021/05/18 01:08:52;;;;;;;3.00;1.60;;;;;;;10.54;82.74;99114.10;1729429;81;21058;-79
2021/05/18 01:11:22;;;;;;;4.00;2.12;;;;;;;10.54;82.80;99114.59;1739783;81;21009;-79
2021/05/18 01:13:57;;;;;;;3.10;1.52;;;;;;;10.52;82.83;99113.40;1759735;81;21015;-80
2021/05/18 01:16:19;;;;;;;2.67;1.87;;;;;;;10.51;83.03;99116.19;1758360;81;21125;-80
2021/05/18 01:18:48;;;;;;;3.15;1.67;;;;;;;10.49;82.89;99120.27;1759514;81;21574;-79
2021/05/18 01:21:15;;;;;;;2.92;1.90;;;;;;;10.47;82.98;99124.05;1739516;81;21037;-79
2021/05/18 01:23:42;;;;;;;4.97;1.90;;;;;;;10.45;82.86;99122.02;1759687;81;21085;-80
2021/05/18 01:26:11;;;;;;;3.83;1.67;;;;;;;10.44;82.93;99122.52;1757384;81;21010;-79
2021/05/18 01:28:37;;;;;;;3.22;1.40;;;;;;;10.43;82.99;99119.54;1746951;81;20975;-79
2021/05/18 01:31:05;;;;;;;4.25;1.72;;;;;;;10.42;82.97;99127.57;1745347;81;21540;-80
2021/05/18 01:33:32;;;;;;;1.77;1.17;;;;;;;10.42;82.92;99131.53;1759741;81;21496;-79
2021/05/18 01:36:00;;;;;;;3.77;1.50;;;;;;;10.41;82.89;99133.34;1759709;81;21524;-80
2021/05/18 01:38:37;;;;;;;3.45;1.32;;;;;;;10.41;82.95;99133.83;1759692;81;21516;-80
2021/05/18 01:43:53;;;;;;;2.52;1.30;;;;;;;10.39;82.79;99137.91;1759522;81;21576;-80
2021/05/18 01:46:23;;;;;;;3.80;1.22;;;;;;;10.39;82.96;99139.72;1758266;81;21500;-80
2021/05/18 01:49:03;;;;;;;1.80;1.22;;;;;;;10.39;82.89;99137.08;1728169;83;21058;-79
2021/05/18 01:51:37;;;;;;;2.90;1.15;;;;;;;10.39;82.86;99135.77;1754827;81;21001;-79
2021/05/18 01:54:10;;;;;;;3.00;1.12;;;;;;;10.37;82.92;99137.23;1758253;80;21539;-78
2021/05/18 01:57:20;;;;;;;3.90;1.05;;;;;;;10.37;82.99;99139.05;1759561;81;21548;-81
2021/05/18 01:59:12;;;;;;;1.60;0.98;;;;;;;10.37;82.86;99135.09;1718128;81;21078;-81
2021/05/18 02:01:39;;;;;;;3.15;1.40;;;;;;;10.36;82.78;99137.36;1728909;81;21525;-81
2021/05/18 02:04:06;;;;;;;2.22;1.30;;;;;;;10.35;82.75;99135.70;1728381;83;21054;-81
2021/05/18 02:06:35;;;;;;;2.62;1.27;;;;;;;10.34;82.70;99141.47;1728251;83;21560;-82
2021/05/18 02:09:04;;;;;;;2.62;1.00;;;;;;;10.34;82.72;99152.02;1728153;83;21018;-80
2021/05/18 02:11:31;;;;;;;2.58;1.32;;;;;;;10.32;82.77;99154.77;1735217;81;21062;-81
2021/05/18 02:14:03;;;;;;;1.00;0.90;;;;;;;10.32;82.73;99148.67;1728644;81;21512;-80
2021/05/18 02:16:30;;;;;;;2.27;1.25;;;;;;;10.31;82.62;99162.83;1727323;83;21161;-81
2021/05/18 02:21:51;;;;;;;2.33;1.32;;;;;;;10.31;82.58;99164.98;1731987;81;21090;-80
2021/05/18 02:26:50;;;;;;;3.33;0.90;;;;;;;10.31;82.53;99166.30;1759918;81;21065;-82
2021/05/18 02:29:16;;;;;;;2.98;1.10;;;;;;;10.32;82.51;99170.59;1752903;81;20990;-81
2021/05/18 02:31:43;;;;;;;1.22;0.98;;;;;;;10.31;82.58;99170.25;1759463;81;21041;-82
2021/05/18 02:34:09;;;;;;;1.57;0.90;;;;;;;10.31;82.68;99171.57;1759887;81;21089;-80
2021/05/18 02:36:35;;;;;;;1.87;1.10;;;;;;;10.30;82.57;99173.04;1760041;81;21113;-81
2021/05/18 02:39:01;;;;;;;1.52;0.88;;;;;;;10.30;82.55;99175.67;1759885;81;22323;-81
2021/05/18 02:41:27;;;;;;;1.98;1.35;;;;;;;10.30;82.46;99178.31;1753760;81;21030;-82
2021/05/18 02:44:03;;;;;;;2.10;1.20;;;;;;;10.30;82.37;99178.31;1728464;81;21588;-82
2021/05/18 02:49:11;;;;;;;2.37;1.67;;;;;;;10.30;82.36;99175.19;1728229;83;21576;-81
2021/05/18 02:51:40;;;;;;;2.60;1.27;;;;;;;10.30;82.41;99181.78;1740245;81;21041;-80
2021/05/18 02:54:09;;;;;;;2.05;0.95;;;;;;;10.30;82.33;99180.95;1759741;81;21631;-82
2021/05/18 02:56:44;;;;;;;1.70;1.10;;;;;;;10.30;82.38;99178.31;1757303;81;21547;-81
2021/05/18 03:01:33;;;;;;;1.85;1.05;;;;;;;10.30;82.24;99191.01;1728360;81;21046;-81
2021/05/18 03:03:59;;;;;;;1.80;1.12;;;;;;;10.30;82.25;99187.05;1728305;81;21026;-80
2021/05/18 03:06:25;;;;;;;3.27;1.20;;;;;;;10.30;82.37;99189.69;1728261;83;21157;-81
2021/05/18 03:08:52;;;;;;;1.80;0.90;;;;;;;10.29;82.12;99188.00;1728117;83;21041;-81
2021/05/18 03:11:18;;;;;;;2.33;0.70;;;;;;;10.29;82.16;99188.00;1729546;81;21023;-80
2021/05/18 03:13:44;;;;;;;1.00;0.85;;;;;;;10.28;82.16;99191.62;1739539;81;21539;-79
2021/05/18 03:16:10;;;;;;;1.22;0.72;;;;;;;10.28;82.00;99194.25;1728437;81;21034;-81
2021/05/18 03:18:36;;;;;;;1.60;1.20;;;;;;;10.27;82.04;99193.91;1728250;81;21061;-81
2021/05/18 03:21:04;;;;;;;1.35;0.70;;;;;;;10.28;82.05;99194.25;1728731;81;21010;-81
2021/05/18 03:23:30;;;;;;;1.52;0.93;;;;;;;10.28;82.04;99198.70;1728343;81;21006;-81
2021/05/18 03:25:56;;;;;;;1.95;0.70;;;;;;;10.27;81.83;99199.68;1728215;83;21022;-79
2021/05/18 03:28:22;;;;;;;1.47;1.00;;;;;;;10.27;81.87;99196.55;1736631;81;21030;-78
2021/05/18 03:36:09;;;;;;;2.50;1.05;;;;;;;10.25;81.82;99203.72;1759506;81;21065;-80
2021/05/18 03:38:39;;;;;;;1.42;0.82;;;;;;;10.23;81.57;99209.64;1759929;81;21006;-82
2021/05/18 03:41:12;;;;;;;2.67;0.80;;;;;;;10.22;81.57;99212.39;1758721;81;21643;-80
2021/05/18 04:04:36;;;;;;;3.87;0.88;;;;;;;10.11;81.53;99233.12;1728417;81;21086;-80
2021/05/18 04:12:43;;;;;;;6.03;1.30;;;;;;;10.09;81.36;99236.36;1731640;81;21114;-80
2021/05/18 04:49:59;;;;;;;1.42;0.80;;;;;;;10.18;81.45;99271.64;1747600;82;21038;-79
2021/05/18 04:52:53;;;;;;;2.62;1.25;;;;;;;10.20;81.25;99267.91;1748047;81;21066;-81
2021/05/18 04:59:59;;;;;;;2.85;0.90;;;;;;;10.28;81.44;99266.77;1729792;83;21639;-81
2021/05/18 05:07:58;;;;;;;0.90;0.62;;;;;;;10.35;81.23;99269.69;1728060;83;21133;-77
2021/05/18 05:10:28;;;;;;;1.32;0.60;;;;;;;10.38;81.19;99277.82;1727053;83;21169;-80
2021/05/18 05:14:08;;;;;;;0.93;0.78;;;;;;;10.41;81.38;99280.19;1726556;83;21070;-80
2021/05/18 05:15:31;;;;;;;1.20;0.65;;;;;;;10.42;81.44;99282.68;1724089;83;21145;-79
2021/05/18 05:17:57;;;;;;;2.10;0.70;;;;;;;10.45;81.42;99282.41;1727993;83;21046;-80
2021/05/18 05:20:24;;;;;;;4.10;0.93;;;;;;;10.48;81.35;99283.95;1728162;83;21030;-78
2021/05/18 05:22:50;;;;;;;2.02;1.00;;;;;;;10.51;81.33;99291.59;1728093;83;21608;-81
2021/05/18 05:25:16;;;;;;;2.35;0.95;;;;;;;10.52;81.24;99294.56;1728256;83;21093;-84
2021/05/18 05:27:41;;;;;;;1.42;0.80;;;;;;;10.55;81.29;99293.80;1727767;83;21050;-84
2021/05/18 05:30:09;;;;;;;1.37;0.62;;;;;;;10.57;81.30;99291.05;1728064;83;20999;-82
2021/05/18 05:32:35;;;;;;;1.12;0.72;;;;;;;10.61;81.52;99287.65;1758468;81;21340;-82
2021/05/18 05:35:02;;;;;;;2.05;0.80;;;;;;;10.64;81.32;99292.66;1759824;81;21524;-82
2021/05/18 05:37:28;;;;;;;2.15;1.10;;;;;;;10.67;80.81;99289.75;1759741;81;21038;-82
2021/05/18 05:39:54;;;;;;;2.60;0.88;;;;;;;10.70;80.85;99293.43;1759759;81;21544;-79
2021/05/18 05:42:21;;;;;;;1.57;0.90;;;;;;;10.71;80.90;99297.23;1759451;81;21002;-77
2021/05/18 05:44:48;;;;;;;2.10;0.80;;;;;;;10.73;80.87;99297.95;1759738;81;21045;-79
2021/05/18 05:47:14;;;;;;;2.83;1.45;;;;;;;10.76;80.94;99304.27;1759729;81;21018;-78
2021/05/18 05:49:40;;;;;;;1.67;1.40;;;;;;;10.79;80.72;99305.31;1759919;81;21078;-78
2021/05/18 05:52:06;;;;;;;2.30;0.95;;;;;;;10.83;80.85;99309.00;1759331;81;21414;-78
2021/05/18 05:54:35;;;;;;;3.65;1.12;;;;;;;10.86;80.71;99313.52;1748846;81;21057;-78
2021/05/18 05:57:02;;;;;;;1.05;0.68;;;;;;;10.87;80.69;99311.70;1756347;81;21080;-83
2021/05/18 05:59:28;;;;;;;1.87;0.80;;;;;;;10.88;80.65;99302.31;1759355;81;21507;-84
2021/05/18 06:01:54;;;;;;;1.85;1.25;;;;;;;10.92;80.62;99312.11;1756960;81;21038;-83
2021/05/18 06:04:20;;;;;;;1.92;1.20;;;;;;;10.95;80.81;99311.34;1749562;80;21085;-83
2021/05/18 06:06:46;;;;;;;1.45;0.90;;;;;;;10.99;80.97;99310.58;1756310;81;21049;-83
2021/05/18 06:09:11;;;;;;;3.33;0.98;;;;;;;11.03;80.86;99309.35;1740326;80;21620;-83
2021/05/18 06:11:51;;;;;;;4.25;1.55;;;;;;;11.08;80.74;99308.92;1758799;81;21037;-81
2021/05/18 06:14:21;;;;;;;1.10;0.70;;;;;;;11.11;80.97;99312.12;1754674;80;21098;-83
2021/05/18 06:49:10;;;;;;;1.37;0.88;;;;;;;11.40;79.84;99355.69;1743757;81;21057;-81
2021/05/18 06:51:36;;;;;;;1.40;1.10;;;;;;;11.42;79.64;99360.84;1759365;80;21030;-82
2021/05/18 06:54:04;;;;;;;2.95;1.00;;;;;;;11.43;79.76;99358.05;1730101;81;21050;-83
2021/05/18 06:56:35;;;;;;;1.80;0.93;;;;;;;11.46;79.38;99360.90;1738388;80;21049;-79
2021/05/18 07:01:28;;;;;;;1.10;0.88;;;;;;;11.51;79.57;99370.05;1726902;83;21134;-79
2021/05/18 07:03:56;;;;;;;1.75;1.20;;;;;;;11.55;79.63;99370.63;1727167;83;21086;-80
2021/05/18 07:09:04;;;;;;;1.75;0.90;;;;;;;11.63;79.58;99372.06;1756188;81;21153;-83
2021/05/18 07:11:30;;;;;;;2.52;1.17;;;;;;;11.69;79.73;99369.36;1749143;81;21018;-83
2021/05/18 07:13:56;;;;;;;2.90;1.05;;;;;;;11.75;79.73;99366.15;1747556;81;21574;-83
2021/05/18 07:16:23;;;;;;;3.05;1.17;;;;;;;11.81;79.80;99362.08;1750026;81;21129;-81
2021/05/18 07:18:50;;;;;;;1.82;0.90;;;;;;;11.87;79.70;99365.52;1742492;80;21014;-78
2021/05/18 07:21:19;;;;;;;7.62;2.12;;;;;;;11.94;79.19;99362.63;1749361;80;21380;-83
2021/05/18 07:23:45;;;;;;;1.77;1.30;;;;;;;12.01;79.48;99359.78;1747583;80;21153;-81
2021/05/18 07:26:11;;;;;;;1.72;0.98;;;;;;;12.08;79.44;99364.84;1778435;80;21042;-83
2021/05/18 07:28:38;;;;;;;2.98;1.07;;;;;;;12.15;79.20;99368.56;1748493;81;21547;-83
2021/05/18 07:31:06;;;;;;;2.15;1.40;;;;;;;12.23;79.27;99369.65;1750789;80;21045;-81
2021/05/18 07:33:32;;;;;;;2.60;1.40;;;;;;;12.33;79.60;99365.15;1758887;80;20991;-79
2021/05/18 07:36:09;;;;;;;3.08;1.35;;;;;;;12.42;78.96;99368.25;1758909;80;21010;-81
2021/05/18 07:38:39;;;;;;;3.12;1.25;;;;;;;12.50;78.62;99371.47;1738523;80;21064;-83
2021/05/18 07:41:06;;;;;;;3.45;1.22;;;;;;;12.56;78.69;99369.56;1748650;81;21053;-83
2021/05/18 07:43:33;;;;;;;2.00;1.27;;;;;;;12.62;78.70;99375.10;1739017;81;21025;-81
2021/05/18 07:46:01;;;;;;;1.70;1.17;;;;;;;12.70;78.89;99366.91;1747922;80;20980;-83
2021/05/18 07:48:35;;;;;;;2.05;1.25;;;;;;;12.78;78.33;99377.61;1726803;81;21170;-81
2021/05/18 08:07:06;;;;;;;1.77;1.40;;;;;;;13.24;77.55;99381.92;1758537;81;21110;-84
2021/05/18 08:09:35;;;;;;;2.62;1.37;;;;;;;13.31;77.52;99374.20;1749324;81;21098;-81
2021/05/18 08:12:00;;;;;;;1.20;0.88;;;;;;;13.38;77.68;99377.90;1751889;81;21105;-83
2021/05/18 08:14:27;;;;;;;3.70;1.77;;;;;;;13.46;77.56;99381.95;1761629;80;21093;-79
2021/05/18 08:17:15;;;;;;;3.37;1.50;;;;;;;13.53;76.49;99389.63;1747413;80;21092;-80
2021/05/18 10:36:03;;;;;;;0.82;0.78;;;;;;;16.48;63.53;99393.87;1697038;83;21235;-77
2021/05/18 10:38:46;;;;;;;2.12;0.57;;;;;;;16.17;63.35;99388.48;1697262;83;21015;-77
2021/05/18 10:41:25;;;;;;;0.37;0.30;;;;;;;15.94;64.54;99398.50;1694510;83;21040;-77
2021/05/18 10:43:59;;;;;;;1.40;0.30;;;;;;;15.73;64.39;99400.00;1695783;83;21102;-79
2021/05/18 10:46:29;;;;;;;0.98;0.33;;;;;;;15.44;65.77;99405.30;1695588;83;21102;-79
2021/05/18 10:49:00;;;;;;;0.33;0.28;;;;;;;15.19;66.75;99392.47;1695882;83;21419;-77
2021/05/18 10:51:52;;;;;;;1.53;0.33;;;;;;;14.99;66.82;99395.41;1697014;83;21042;-79
2021/05/18 10:54:39;;;;;;;0.45;0.40;;;;;;;14.88;67.51;99400.22;1708498;83;21675;-79
2021/05/18 10:57:19;;;;;;;1.37;0.68;;;;;;;14.78;68.53;99395.03;1707606;83;21058;-80
2021/05/18 10:59:50;;;;;;;1.20;0.40;;;;;;;14.73;69.63;99392.02;1699812;83;21714;-79
2021/05/18 11:02:38;;;;;;;1.85;0.40;;;;;;;14.66;69.25;99392.33;1713871;83;21034;-78
2021/05/18 11:05:08;;;;;;;1.62;0.35;;;;;;;14.66;69.70;99389.67;1633491;86;21111;-79
2021/05/18 11:07:41;;;;;;;1.60;0.93;;;;;;;14.73;70.20;99390.69;1625321;86;21068;-77
2021/05/18 11:10:15;;;;;;;1.27;0.35;;;;;;;14.87;70.15;99394.55;1651455;86;21039;-78
2021/05/18 11:12:47;;;;;;;0.60;0.30;;;;;;;15.07;70.22;99394.62;1635142;86;21070;-78
2021/05/18 11:15:25;;;;;;;;;;;;;;;15.21;70.02;99389.16;1638411;86;21031;-79
2021/05/18 11:17:53;;;;;;;2.00;0.42;;;;;;;15.33;69.28;99389.16;1634198;86;20179;-80
2021/05/18 11:23:30;;;;;;;3.00;0.72;;;;;;;15.60;69.09;99409.80;1628079;86;21153;-76
2021/05/18 11:26:04;;;;;;;1.10;0.40;;;;;;;15.58;67.65;99417.11;1626406;86;21190;-76
2021/05/18 11:28:49;;;;;;;3.20;0.40;;;;;;;15.40;67.25;99426.07;1641909;85;21384;-78
2021/05/18 11:31:20;;;;;;;1.10;0.57;;;;;;;15.22;68.85;99421.37;1622814;87;21131;-79
2021/05/18 11:33:52;;;;;;;1.15;0.53;;;;;;;15.00;70.15;99417.02;1619016;87;21090;-80
2021/05/18 11:36:25;;;;;;;1.13;0.60;;;;;;;14.85;70.53;99413.31;1659226;85;21034;-80
2021/05/18 11:38:57;;;;;;;1.60;0.45;;;;;;;14.81;70.88;99401.83;1670084;85;21877;-80
2021/05/18 11:41:34;;;;;;;1.02;0.62;;;;;;;14.82;71.87;99397.70;1655160;86;21521;-80
2021/05/18 11:44:02;;;;;;;2.02;0.98;;;;;;;14.87;71.86;99401.19;1654745;86;21070;-80
2021/05/18 11:46:31;;;;;;;1.15;0.93;;;;;;;14.90;71.70;99398.20;1651988;85;21546;-78
2021/05/18 11:49:02;;;;;;;1.45;0.80;;;;;;;14.97;71.74;99393.91;1646278;85;21050;-80
2021/05/18 11:51:34;;;;;;;2.72;0.60;;;;;;;15.08;72.34;99402.09;1662765;85;21588;-80
2021/05/18 11:54:06;;;;;;;2.10;0.68;;;;;;;15.18;72.13;99398.28;1664608;85;21561;-79
2021/05/18 11:56:36;;;;;;;1.45;0.50;;;;;;;15.26;72.29;99398.78;1644992;85;21024;-79
2021/05/18 11:59:12;;;;;;;1.98;0.70;;;;;;;15.35;72.36;99397.81;1676783;85;21061;-80
2021/05/18 12:01:51;;;;;;;3.70;0.40;;;;;;;15.41;71.60;99395.83;1661172;84;21632;-78
2021/05/18 12:04:20;;;;;;;2.25;0.80;;;;;;;15.58;71.11;99398.49;1639344;86;21481;-77
2021/05/18 12:06:59;;;;;;;1.25;0.78;;;;;;;15.80;69.40;99393.88;1635273;87;21062;-77
2021/05/18 12:09:28;;;;;;;0.78;0.40;;;;;;;15.94;67.74;99395.84;1653548;86;21071;-81
2021/05/18 12:11:56;;;;;;;1.70;0.68;;;;;;;16.14;68.88;99383.50;1650787;85;21102;-82
2021/05/18 12:14:23;;;;;;;0.90;0.40;;;;;;;16.39;68.20;99385.09;1655287;85;21043;-79
2021/05/18 12:16:50;;;;;;;1.40;0.40;;;;;;;16.60;67.42;99380.52;1628877;88;21094;-81
2021/05/18 12:19:19;;;;;;;1.00;0.40;;;;;;;16.82;67.36;99377.63;1666740;85;21043;-80
2021/05/18 12:21:53;;;;;;;0.40;0.20;;;;;;;17.03;66.86;99384.98;1654844;85;21063;-79
2021/05/18 12:24:22;;;;;;;0.50;0.30;;;;;;;17.17;65.34;99410.05;1643564;86;21574;-79
2021/05/18 12:27:02;;;;;;;1.10;0.33;;;;;;;17.01;65.80;99402.16;1627181;86;21099;-80
2021/05/18 12:29:44;;;;;;;2.00;0.45;;;;;;;16.74;65.61;99414.91;1626430;86;21059;-80
2021/05/18 12:32:26;;;;;;;2.90;0.60;;;;;;;16.44;66.18;99415.19;1631015;87;21083;-80
2021/05/18 12:35:12;;;;;;;1.60;0.50;;;;;;;16.16;66.42;99428.91;1623043;86;21079;-78
2021/05/18 12:37:45;;;;;;;0.75;0.55;;;;;;;15.91;66.98;99438.73;1618548;86;21566;-78
2021/05/18 12:40:29;;;;;;;2.35;0.60;;;;;;;15.70;67.17;99442.41;1639140;86;21777;-79
2021/05/18 12:43:06;;;;;;;1.15;0.60;;;;;;;15.55;67.60;99449.34;1620203;87;21569;-80
2021/05/18 12:45:32;;;;;;;2.15;0.50;;;;;;;15.46;68.28;99454.66;1631520;86;21150;-80
2021/05/18 12:48:00;;;;;;;6.47;0.90;;;;;;;15.39;68.00;99458.12;1635929;86;21008;-80
2021/05/18 12:50:47;;;;;;;1.30;0.55;;;;;;;15.27;68.14;99457.61;1619624;86;21134;-80
2021/05/18 12:53:29;;;;;;;1.30;0.40;;;;;;;15.20;68.82;99450.78;1635561;86;21694;-80
2021/05/18 12:55:57;;;;;;;3.17;1.43;;;;;;;15.13;68.83;99453.73;1628707;87;21568;-80
2021/05/18 12:58:30;;;;;;;2.17;0.42;;;;;;;15.05;69.77;99454.22;1626247;88;21537;-80
2021/05/18 13:01:08;;;;;;;;;;;;;;;14.95;69.86;99453.02;1628833;86;21108;-79
2021/05/18 13:03:34;;;;;;;1.92;0.62;;;;;;;14.88;70.27;99450.68;1621435;86;20258;-79
2021/05/18 13:06:01;;;;;;;1.20;0.68;;;;;;;14.79;70.15;99451.13;1632768;86;21591;-79
2021/05/18 13:08:33;;;;;;;0.90;0.40;;;;;;;14.76;70.52;99450.12;1633004;86;21084;-79
2021/05/18 13:12:11;;;;;;;1.00;0.60;;;;;;;14.78;70.96;99452.13;1626044;86;21083;-79
2021/05/18 13:13:53;;;;;;;1.87;1.02;;;;;;;14.76;70.38;99446.14;1621227;87;21289;-79
2021/05/18 13:16:26;;;;;;;0.93;0.78;;;;;;;14.73;70.78;99448.61;1626813;86;21045;-79
2021/05/18 13:18:59;;;;;;;0.70;0.50;;;;;;;14.76;71.14;99448.80;1629473;86;21114;-79
2021/05/18 13:21:34;;;;;;;2.52;1.37;;;;;;;14.82;71.67;99443.34;1632955;88;21328;-79
2021/05/18 13:26:32;;;;;;;0.70;0.68;;;;;;;14.98;71.81;99453.53;1610099;86;21731;-77
2021/05/18 13:29:23;;;;;;;1.55;0.85;;;;;;;15.08;69.43;99437.46;1628545;86;21059;-78
2021/05/18 13:31:49;;;;;;;2.40;0.53;;;;;;;15.20;70.66;99445.94;1654165;86;21091;-78
2021/05/18 13:34:16;;;;;;;5.42;0.80;;;;;;;15.33;70.90;99450.80;1631198;86;21565;-78
2021/05/18 13:36:44;;;;;;;1.67;0.40;;;;;;;15.41;70.86;99460.13;1651391;85;21043;-78
2021/05/18 13:39:17;;;;;;;2.62;1.07;;;;;;;15.43;70.25;99458.98;1617107;89;21071;-78
2021/05/18 13:41:44;;;;;;;0.65;0.30;;;;;;;15.43;70.50;99463.44;1630670;88;21102;-79
2021/05/18 13:44:12;;;;;;;1.32;0.30;;;;;;;15.37;69.88;99470.26;1634247;87;21058;-77
2021/05/18 13:46:38;;;;;;;1.12;0.55;;;;;;;15.30;69.90;99472.38;1646493;86;21036;-77
2021/05/18 13:49:04;;;;;;;0.95;0.40;;;;;;;15.21;70.32;99476.86;1637014;87;21050;-78
2021/05/18 13:51:31;;;;;;;1.87;0.70;;;;;;;15.10;69.97;99477.14;1651771;85;21349;-78
2021/05/18 13:53:58;;;;;;;1.98;0.35;;;;;;;15.03;70.32;99476.95;1649162;85;21051;-77
2021/05/18 13:56:25;;;;;;;2.22;0.65;;;;;;;14.94;70.42;99478.77;1656707;85;21043;-78
2021/05/18 13:58:53;;;;;;;0.60;0.57;;;;;;;14.87;70.97;99472.43;1639413;86;21113;-79
2021/05/18 14:01:21;;;;;;;1.80;0.60;;;;;;;14.90;71.40;99471.25;1656852;85;21039;-79
2021/05/18 14:03:48;;;;;;;2.10;0.90;;;;;;;15.09;72.36;99464.86;1679198;85;21058;-79
2021/05/18 14:06:16;;;;;;;1.42;1.10;;;;;;;15.31;71.92;99465.59;1670023;85;21064;-78
2021/05/18 14:08:43;;;;;;;0.85;0.78;;;;;;;15.51;71.85;99463.97;1648549;84;21087;-78
2021/05/18 14:11:18;;;;;;;1.30;0.68;;;;;;;15.61;71.81;99464.14;1648027;86;21520;-78
2021/05/18 14:13:47;;;;;;;4.12;0.93;;;;;;;15.69;71.08;99461.53;1639546;85;21071;-79
2021/05/18 14:16:15;;;;;;;1.22;0.55;;;;;;;15.76;71.49;99456.86;1643270;85;21058;-78
2021/05/18 14:18:42;;;;;;;1.30;1.02;;;;;;;15.85;69.27;99469.99;1653894;86;21083;-77
2021/05/18 14:21:08;;;;;;;0.90;0.68;;;;;;;15.92;69.04;99475.48;1652259;86;21050;-75
2021/05/18 14:26:08;;;;;;;2.37;0.80;;;;;;;15.84;69.35;99484.80;1657776;85;21106;-78
2021/05/18 14:28:36;;;;;;;2.80;0.62;;;;;;;15.84;69.97;99484.30;1659658;85;21636;-76
2021/05/18 14:31:06;;;;;;;13.58;1.30;;;;;;;15.94;69.42;99484.14;1668956;85;21578;-76
2021/05/18 14:33:32;;;;;;;1.92;0.78;;;;;;;16.01;69.43;99485.63;1657656;85;21016;-78
2021/05/18 14:35:58;;;;;;;1.95;0.70;;;;;;;16.05;68.65;99483.79;1674551;85;21066;-77
2021/05/18 14:38:25;;;;;;;1.17;0.78;;;;;;;16.09;68.62;99485.62;1674528;85;21075;-77
2021/05/18 14:43:54;;;;;;;3.95;0.90;;;;;;;16.14;67.77;99488.63;1656310;86;21170;-78
2021/05/18 14:46:09;;;;;;;1.02;0.82;;;;;;;16.11;67.85;99491.11;1636870;87;21111;-79
2021/05/18 14:56:25;;;;;;;1.52;0.72;;;;;;;16.18;67.34;99501.41;1629071;88;21132;-78
2021/05/18 14:58:51;;;;;;;3.77;1.02;;;;;;;16.20;67.00;99491.95;1625840;86;21547;-77
2021/05/18 15:01:17;;;;;;;1.07;0.95;;;;;;;16.23;67.66;99492.13;1627879;87;21521;-80
2021/05/18 15:03:43;;;;;;;1.05;0.80;;;;;;;16.21;66.95;99500.25;1634458;86;21059;-79
2021/05/18 15:06:09;;;;;;;1.07;1.00;;;;;;;16.21;67.01;99499.43;1628008;86;21118;-78
2021/05/18 15:08:36;;;;;;;0.80;0.80;;;;;;;16.14;67.03;99497.94;1626452;87;21055;-80
2021/05/18 15:11:04;;;;;;;1.15;0.75;;;;;;;16.05;67.36;99500.27;1627996;88;21079;-78
2021/05/18 15:13:33;;;;;;;1.52;0.70;;;;;;;16.01;68.00;99498.94;1627096;87;21091;-80
2021/05/18 15:15:58;;;;;;;1.62;0.90;;;;;;;16.04;68.29;99505.27;1629038;86;21087;-80
2021/05/18 15:18:25;;;;;;;0.98;0.70;;;;;;;16.08;67.87;99510.58;1626045;87;21142;-81
2021/05/18 15:20:51;;;;;;;2.17;0.78;;;;;;;16.13;68.23;99512.25;1631226;86;21067;-80
2021/05/18 15:23:18;;;;;;;1.10;0.53;;;;;;;16.16;67.99;99509.26;1627955;88;21027;-80
2021/05/18 15:25:44;;;;;;;2.25;1.10;;;;;;;16.17;67.36;99509.58;1626377;86;21078;-80
2021/05/18 15:28:10;;;;;;;2.17;1.20;;;;;;;16.11;67.12;99507.08;1623615;87;21060;-81
2021/05/18 15:30:36;;;;;;;2.10;1.80;;;;;;;16.00;66.86;99503.44;1613588;87;21586;-78
2021/05/18 15:33:03;;;;;;;0.98;0.68;;;;;;;15.94;67.46;99510.24;1622391;87;21122;-78
2021/05/18 15:35:28;;;;;;;0.57;0.30;;;;;;;15.89;67.23;99507.27;1625843;86;21140;-80
2021/05/18 15:37:54;;;;;;;1.55;0.40;;;;;;;15.84;66.90;99514.89;1629447;88;21404;-80
2021/05/18 15:40:21;;;;;;;0.50;0.40;;;;;;;15.76;66.40;99515.38;1626809;86;21023;-78
2021/05/18 15:42:47;;;;;;;1.12;0.50;;;;;;;15.68;67.14;99517.53;1625848;86;21036;-79
2021/05/18 15:45:14;;;;;;;0.40;0.40;;;;;;;15.65;67.49;99515.16;1627799;86;21027;-80
2021/05/18 15:47:41;;;;;;;0.60;0.40;;;;;;;15.61;67.42;99511.17;1626554;86;21401;-80
2021/05/18 15:50:08;;;;;;;0.60;0.40;;;;;;;15.59;68.02;99512.66;1631192;88;21122;-80
2021/05/18 15:52:36;;;;;;;0.70;0.42;;;;;;;15.53;67.97;99513.80;1627394;88;21059;-81
2021/05/18 15:55:05;;;;;;;0.82;0.40;;;;;;;15.49;67.65;99507.98;1627768;86;21142;-80
2021/05/18 15:57:31;;;;;;;1.27;0.50;;;;;;;15.45;67.77;99507.98;1626348;86;21091;-81
2021/05/18 15:59:57;;;;;;;2.65;0.47;;;;;;;15.43;68.13;99514.80;1625552;86;21826;-81
2021/05/18 16:02:23;;;;;;;3.50;0.90;;;;;;;15.42;68.40;99513.12;1629675;86;21148;-80
2021/05/18 16:04:49;;;;;;;1.20;0.55;;;;;;;15.43;68.64;99512.14;1627420;86;21082;-80
2021/05/18 16:07:17;;;;;;;0.40;0.30;;;;;;;15.44;67.01;99513.80;1626683;86;21074;-80
2021/05/18 16:09:43;;;;;;;0.88;0.68;;;;;;;15.40;67.74;99517.78;1625281;88;21156;-80
2021/05/18 16:12:10;;;;;;;1.12;0.68;;;;;;;15.39;67.79;99515.27;1624136;86;21553;-80
2021/05/18 16:14:37;;;;;;;0.90;0.60;;;;;;;15.40;67.86;99516.92;1626827;86;21588;-80
2021/05/18 16:17:04;;;;;;;0.85;0.78;;;;;;;15.41;67.98;99519.44;1626304;86;21094;-80
2021/05/18 16:19:30;;;;;;;2.12;1.00;;;;;;;15.43;67.81;99516.13;1625587;86;21015;-81
2021/05/18 16:21:57;;;;;;;1.50;0.62;;;;;;;15.44;67.82;99516.95;1624156;86;21055;-80
2021/05/18 16:24:25;;;;;;;1.30;0.80;;;;;;;15.42;67.42;99518.44;1627690;86;21158;-80
2021/05/18 16:26:53;;;;;;;1.57;0.78;;;;;;;15.41;67.78;99515.95;1626823;86;21122;-81
2021/05/18 16:29:20;;;;;;;1.70;0.75;;;;;;;15.42;68.29;99517.10;1626445;86;21107;-81
2021/05/18 16:31:46;;;;;;;4.22;3.10;;;;;;;15.47;68.22;99524.61;1636611;86;21043;-80
2021/05/18 16:34:13;;;;;;;2.85;0.95;;;;;;;15.50;67.87;99518.97;1629971;86;21048;-80
2021/05/18 16:36:39;;;;;;;4.45;1.57;;;;;;;15.49;67.88;99520.77;1636915;86;21023;-80
2021/05/18 16:39:08;;;;;;;13.85;7.03;;;;;;;15.47;68.05;99520.13;1627797;88;21062;-80
2021/05/18 16:41:37;;;;;;;2.20;1.52;;;;;;;15.44;67.88;99522.27;1624594;88;21071;-80
2021/05/18 16:44:06;;;;;;;4.37;2.70;;;;;;;15.45;68.37;99514.63;1629516;88;21589;-80
2021/05/18 16:46:32;;;;;;;5.42;3.65;;;;;;;15.51;68.51;99521.13;1627699;88;21067;-81